WAT190 PAKT-CYXE
Flight info
| Callsign | WAT190 |
|---|---|
| Flight time | N/A |
| Altitude | 21000 |
| Route | ANN3 ANN DCT 55N30 DCT YYD/N0279F170 V301 YXS/N0271F230 DCT HUTON DCT PARQE DCT LODGO DCT ELLKS Q862 YEGGA Q819 CAMRA DCT NUDET DCT MELSU DCT KEBRU KEBRU6 |
| Aircraft | PC12/L-SDFGRWY/S |
Departure
| Time | 2026-04-24 14:59 |
|---|---|
| Airport | Ketchikan International Airport (PAKT) |
Arrival
| Time | N/A |
|---|---|
| Airport | Saskatoon John G. Diefenbaker International Airport (CYXE) |
| Time | Latitude | Longitude | Altitude | Speed | Heading |
|---|---|---|---|---|---|
| 2026-04-24 14:34 | 55.35167 | -131.70242 | 99 ft | 0 kts | 75° |
| 2026-04-24 14:45 | 55.35167 | -131.70241 | 99 ft | 0 kts | 75° |
| 2026-04-24 14:50 | 55.35167 | -131.70240 | 99 ft | 0 kts | 86° |
| 2026-04-24 14:51 | 55.35166 | -131.70237 | 99 ft | 2 kts | 138° |
| 2026-04-24 14:51 | 55.35168 | -131.70239 | 99 ft | 2 kts | 154° |
| 2026-04-24 14:51 | 55.35169 | -131.70248 | 99 ft | 5 kts | 238° |
| 2026-04-24 14:51 | 55.35135 | -131.70322 | 99 ft | 9 kts | 214° |
| 2026-04-24 14:52 | 55.35062 | -131.70406 | 98 ft | 0 kts | 209° |
| 2026-04-24 14:52 | 55.35056 | -131.70404 | 98 ft | 4 kts | 123° |
| 2026-04-24 14:52 | 55.35037 | -131.70278 | 99 ft | 20 kts | 133° |
| 2026-04-24 14:52 | 55.34938 | -131.70093 | 100 ft | 10 kts | 140° |
| 2026-04-24 14:53 | 55.34935 | -131.70089 | 100 ft | 0 kts | 145° |
| 2026-04-24 14:54 | 55.34908 | -131.70058 | 100 ft | 0 kts | 156° |
| 2026-04-24 14:56 | 55.34906 | -131.70056 | 100 ft | 3 kts | 154° |
| 2026-04-24 14:56 | 55.34883 | -131.70039 | 100 ft | 2 kts | 172° |
| 2026-04-24 14:56 | 55.34860 | -131.70059 | 100 ft | 12 kts | 212° |
| 2026-04-24 14:56 | 55.34759 | -131.69998 | 98 ft | 24 kts | 133° |
| 2026-04-24 14:57 | 55.34733 | -131.69965 | 98 ft | 11 kts | 329° |
| 2026-04-24 14:57 | 55.34781 | -131.70045 | 98 ft | 0 kts | 315° |
| 2026-04-24 14:58 | 55.34792 | -131.70064 | 98 ft | 14 kts | 314° |
| 2026-04-24 14:58 | 55.35008 | -131.70436 | 98 ft | 71 kts | 315° |
| 2026-04-24 14:58 | 55.35453 | -131.71193 | 209 ft | 99 kts | 318° |
| 2026-04-24 14:58 | 55.36029 | -131.72088 | 505 ft | 121 kts | 318° |
| 2026-04-24 14:59 | 55.36707 | -131.73187 | 909 ft | 139 kts | 314° |
| 2026-04-24 14:59 | 55.37390 | -131.74426 | 1590 ft | 143 kts | 315° |
| 2026-04-24 14:59 | 55.38104 | -131.75696 | 2188 ft | 149 kts | 316° |
| 2026-04-24 14:59 | 55.38852 | -131.76951 | 2912 ft | 147 kts | 318° |
| 2026-04-24 15:00 | 55.39595 | -131.78151 | 3631 ft | 144 kts | 319° |
| 2026-04-24 15:00 | 55.40321 | -131.79297 | 4332 ft | 141 kts | 320° |
| 2026-04-24 15:00 | 55.41064 | -131.80477 | 4896 ft | 146 kts | 320° |
| 2026-04-24 15:00 | 55.41768 | -131.81783 | 5483 ft | 148 kts | 314° |
| 2026-04-24 15:01 | 55.42348 | -131.83312 | 6062 ft | 154 kts | 294° |
| 2026-04-24 15:01 | 55.42403 | -131.85243 | 6628 ft | 166 kts | 260° |
| 2026-04-24 15:01 | 55.41718 | -131.86980 | 7077 ft | 188 kts | 218° |
| 2026-04-24 15:01 | 55.40414 | -131.87667 | 7454 ft | 202 kts | 192° |
| 2026-04-24 15:02 | 55.39103 | -131.88264 | 8117 ft | 194 kts | 189° |
| 2026-04-24 15:02 | 55.37734 | -131.87883 | 8536 ft | 204 kts | 158° |
| 2026-04-24 15:02 | 55.36527 | -131.86731 | 9315 ft | 191 kts | 147° |
| 2026-04-24 15:02 | 55.35395 | -131.85509 | 9875 ft | 196 kts | 151° |
| 2026-04-24 15:03 | 55.34564 | -131.84778 | 10108 ft | 206 kts | 154° |
| 2026-04-24 15:03 | 55.32879 | -131.83289 | 11038 ft | 195 kts | 150° |
| 2026-04-24 15:03 | 55.31738 | -131.82235 | 11849 ft | 179 kts | 152° |
| 2026-04-24 15:03 | 55.30626 | -131.81128 | 12242 ft | 191 kts | 146° |
| 2026-04-24 15:04 | 55.29507 | -131.79856 | 12773 ft | 193 kts | 145° |
| 2026-04-24 15:04 | 55.28361 | -131.78585 | 13279 ft | 197 kts | 149° |
| 2026-04-24 15:04 | 55.27156 | -131.77444 | 13848 ft | 196 kts | 152° |
| 2026-04-24 15:04 | 55.25927 | -131.76385 | 14373 ft | 198 kts | 154° |
| 2026-04-24 15:05 | 55.24699 | -131.75239 | 14808 ft | 202 kts | 149° |
| 2026-04-24 15:05 | 55.23443 | -131.74081 | 15277 ft | 204 kts | 153° |
| 2026-04-24 15:05 | 55.22149 | -131.73070 | 15797 ft | 204 kts | 159° |
| 2026-04-24 15:05 | 55.20832 | -131.72057 | 16223 ft | 210 kts | 151° |
| 2026-04-24 15:06 | 55.19560 | -131.70778 | 16686 ft | 211 kts | 147° |
| 2026-04-24 15:06 | 55.18324 | -131.69405 | 17174 ft | 211 kts | 144° |
| 2026-04-24 15:06 | 55.17089 | -131.67964 | 17589 ft | 216 kts | 144° |
| 2026-04-24 15:06 | 55.15831 | -131.66485 | 18001 ft | 220 kts | 145° |
| 2026-04-24 15:07 | 55.14522 | -131.65065 | 18447 ft | 222 kts | 148° |
| 2026-04-24 15:07 | 55.13146 | -131.63884 | 18856 ft | 225 kts | 155° |
| 2026-04-24 15:07 | 55.11699 | -131.62830 | 19271 ft | 225 kts | 155° |
| 2026-04-24 15:07 | 55.10257 | -131.61781 | 19711 ft | 224 kts | 157° |
| 2026-04-24 15:08 | 55.08811 | -131.60747 | 20204 ft | 221 kts | 155° |
| 2026-04-24 15:08 | 55.07399 | -131.59581 | 20384 ft | 235 kts | 143° |
| 2026-04-24 15:08 | 55.06350 | -131.57364 | 20669 ft | 234 kts | 110° |
| 2026-04-24 15:08 | 55.05816 | -131.54787 | 21314 ft | 226 kts | 103° |
| 2026-04-24 15:09 | 55.05576 | -131.51961 | 21274 ft | 242 kts | 83° |
| 2026-04-24 15:09 | 55.05757 | -131.49008 | 21324 ft | 256 kts | 79° |
| 2026-04-24 15:09 | 55.05850 | -131.45776 | 21489 ft | 263 kts | 86° |
| 2026-04-24 15:09 | 55.05710 | -131.42568 | 21353 ft | 283 kts | 94° |
| 2026-04-24 15:10 | 55.05420 | -131.39124 | 21319 ft | 289 kts | 95° |
| 2026-04-24 15:10 | 55.05131 | -131.35693 | 21456 ft | 288 kts | 95° |
| 2026-04-24 15:10 | 55.04852 | -131.32182 | 21281 ft | 293 kts | 88° |
| 2026-04-24 15:10 | 55.04930 | -131.28656 | 21272 ft | 291 kts | 82° |
| 2026-04-24 15:11 | 55.05051 | -131.25131 | 21271 ft | 292 kts | 84° |
| 2026-04-24 15:11 | 55.04944 | -131.21570 | 21343 ft | 291 kts | 92° |
| 2026-04-24 15:11 | 55.04866 | -131.20413 | 21390 ft | 291 kts | 93° |
| 2026-04-24 15:11 | 55.04651 | -131.16928 | 21331 ft | 293 kts | 90° |
| 2026-04-24 15:12 | 55.04541 | -131.13357 | 21353 ft | 292 kts | 89° |
| 2026-04-24 15:12 | 55.04192 | -131.06176 | 21042 ft | 302 kts | 94° |
| 2026-04-24 15:12 | 55.03771 | -131.02552 | 20887 ft | 306 kts | 99° |